createdAt,value
2022-09-18T00:01:18.501Z,95.00
2022-09-18T00:03:46.787Z,94.81
2022-09-18T00:06:17.718Z,94.62
2022-09-18T00:08:44.761Z,95.14
2022-09-18T00:11:14.270Z,94.50
2022-09-18T00:13:41.843Z,94.87
2022-09-18T00:16:10.861Z,94.85
2022-09-18T00:18:37.554Z,94.84
2022-09-18T00:21:18.627Z,94.96
2022-09-18T00:23:46.039Z,95.02
2022-09-18T00:26:18.420Z,95.03
2022-09-18T00:28:45.503Z,94.98
2022-09-18T00:31:18.116Z,95.28
2022-09-18T00:33:45.314Z,95.03
2022-09-18T00:36:14.859Z,95.31
2022-09-18T00:38:41.438Z,95.50
2022-09-18T00:41:13.110Z,95.41
2022-09-18T00:43:39.570Z,94.82
2022-09-18T00:46:29.106Z,94.99
2022-09-18T00:49:18.499Z,94.85
2022-09-18T00:51:47.850Z,95.03
2022-09-18T00:54:19.551Z,95.12
2022-09-18T00:56:47.293Z,95.03
2022-09-18T00:59:19.315Z,95.23
2022-09-18T01:01:45.709Z,95.30
2022-09-18T01:04:12.716Z,94.81
2022-09-18T01:07:17.269Z,94.76
2022-09-18T01:09:57.661Z,94.92
2022-09-18T01:12:45.002Z,95.03
2022-09-18T01:15:30.135Z,94.75
2022-09-18T01:18:10.494Z,94.76
2022-09-18T01:20:56.738Z,95.13
2022-09-18T01:23:49.209Z,95.08
2022-09-18T01:26:27.594Z,95.53
2022-09-18T01:28:58.970Z,95.28
2022-09-18T01:31:43.441Z,95.15
2022-09-18T01:34:18.176Z,95.05
2022-09-18T01:36:51.236Z,95.49
2022-09-18T01:39:38.023Z,95.41
2022-09-18T01:42:06.986Z,95.34
2022-09-18T01:44:35.141Z,94.98
2022-09-18T01:47:04.718Z,95.15
2022-09-18T01:49:37.048Z,95.56
2022-09-18T01:52:16.141Z,95.29
2022-09-18T01:54:45.665Z,95.08
2022-09-18T01:57:25.822Z,95.24
2022-09-18T02:00:02.099Z,95.56
2022-09-18T02:02:32.945Z,95.59
2022-09-18T02:05:02.418Z,95.25
2022-09-18T02:07:51.703Z,95.63
2022-09-18T02:10:21.700Z,96.03
2022-09-18T02:12:48.619Z,96.27
2022-09-18T02:15:15.757Z,96.13
2022-09-18T02:17:53.613Z,96.05
2022-09-18T02:20:25.089Z,96.00
2022-09-18T02:22:54.785Z,95.76
2022-09-18T02:25:29.166Z,96.13
2022-09-18T02:27:56.694Z,96.20
2022-09-18T02:30:23.862Z,96.00
2022-09-18T02:32:54.543Z,96.01
2022-09-18T02:35:22.551Z,95.80
2022-09-18T02:37:54.992Z,95.79
2022-09-18T02:41:03.032Z,96.14
2022-09-18T02:43:57.293Z,95.78
2022-09-18T02:46:45.932Z,95.97
2022-09-18T02:49:28.165Z,96.13
2022-09-18T02:52:18.540Z,96.06
2022-09-18T02:54:51.713Z,95.98
2022-09-18T02:57:46.345Z,96.15
2022-09-18T03:00:16.972Z,96.07
2022-09-18T03:02:44.024Z,96.13
2022-09-18T03:05:10.742Z,96.31
2022-09-18T03:07:38.284Z,96.60
2022-09-18T03:10:05.281Z,96.63
2022-09-18T03:12:31.673Z,96.22
2022-09-18T03:14:58.017Z,96.51
2022-09-18T03:17:24.380Z,96.72
2022-09-18T03:19:50.821Z,96.78
2022-09-18T03:22:17.390Z,96.32
2022-09-18T03:24:44.141Z,96.37
2022-09-18T03:27:10.753Z,96.24
2022-09-18T03:29:37.102Z,96.21
2022-09-18T03:32:03.656Z,96.50
2022-09-18T03:34:30.011Z,96.55
2022-09-18T03:36:56.421Z,96.61
2022-09-18T03:39:22.808Z,96.62
2022-09-18T03:41:49.216Z,95.83
2022-09-18T03:44:15.596Z,95.70
2022-09-18T03:46:42.034Z,95.39
2022-09-18T03:49:09.018Z,95.47
2022-09-18T03:51:35.390Z,95.27
2022-09-18T03:54:01.880Z,95.70
2022-09-18T03:56:28.373Z,95.27
2022-09-18T03:58:54.844Z,95.48
2022-09-18T04:01:21.378Z,95.99
2022-09-18T04:03:47.992Z,96.18
2022-09-18T04:06:14.377Z,95.76
2022-09-18T04:08:40.756Z,95.53
2022-09-18T04:11:07.376Z,95.47
2022-09-18T04:13:34.539Z,95.58
2022-09-18T04:16:01.216Z,95.76
2022-09-18T04:18:27.638Z,95.01
2022-09-18T04:20:54.114Z,95.46
2022-09-18T04:23:20.662Z,95.26
2022-09-18T04:25:47.132Z,95.52
2022-09-18T04:28:13.577Z,95.26
2022-09-18T04:30:39.961Z,95.87
2022-09-18T04:33:07.934Z,95.20
2022-09-18T04:35:34.403Z,95.41
2022-09-18T04:38:00.839Z,95.46
2022-09-18T04:40:27.289Z,95.46
2022-09-18T04:42:53.720Z,95.24
2022-09-18T04:45:20.096Z,95.14
2022-09-18T04:47:47.713Z,95.47
2022-09-18T04:50:15.098Z,95.21
2022-09-18T04:52:41.569Z,95.01
2022-09-18T04:55:08.234Z,95.51
2022-09-18T04:57:34.886Z,95.20
2022-09-18T05:00:01.515Z,95.51
2022-09-18T05:02:28.071Z,95.15
2022-09-18T05:04:54.502Z,94.95
2022-09-18T05:07:20.883Z,94.97
2022-09-18T05:09:47.270Z,95.70
2022-09-18T05:12:13.608Z,95.62
2022-09-18T05:14:40.117Z,95.53
2022-09-18T05:17:06.475Z,95.26
2022-09-18T05:19:32.853Z,95.52
2022-09-18T05:21:59.309Z,95.30
2022-09-18T05:24:25.766Z,95.48
2022-09-18T05:26:52.170Z,95.87
2022-09-18T05:29:18.501Z,94.84
2022-09-18T05:31:44.959Z,94.13
2022-09-18T05:34:11.430Z,94.59
2022-09-18T05:36:37.785Z,94.41
2022-09-18T05:39:04.333Z,94.67
2022-09-18T05:41:30.730Z,94.65
2022-09-18T05:43:57.341Z,94.47
2022-09-18T05:46:23.803Z,93.40
2022-09-18T05:48:51.074Z,94.30
2022-09-18T05:51:17.465Z,94.07
2022-09-18T05:53:48.228Z,93.54
2022-09-18T05:56:17.541Z,93.72
2022-09-18T05:58:43.886Z,93.95
2022-09-18T06:01:10.361Z,93.47
2022-09-18T06:03:36.765Z,92.86
2022-09-18T06:06:03.288Z,92.76
2022-09-18T06:08:29.654Z,91.89
2022-09-18T06:11:00.907Z,92.24
2022-09-18T06:13:27.389Z,91.22
2022-09-18T06:15:54.032Z,91.80
2022-09-18T06:18:20.616Z,91.13
2022-09-18T06:20:58.010Z,91.88
2022-09-18T06:23:26.346Z,91.23
2022-09-18T06:26:04.495Z,91.17
2022-09-18T06:28:32.380Z,91.15
2022-09-18T06:30:59.797Z,90.54
2022-09-18T06:33:26.361Z,90.36
2022-09-18T06:35:52.866Z,89.87
2022-09-18T06:38:19.250Z,87.87
2022-09-18T06:40:53.112Z,87.34
2022-09-18T06:43:20.487Z,87.84
2022-09-18T06:45:57.255Z,87.22
2022-09-18T06:48:24.884Z,84.91
2022-09-18T06:50:56.645Z,84.29
2022-09-18T06:53:24.332Z,83.54
2022-09-18T06:55:51.205Z,81.06
2022-09-18T06:58:19.559Z,79.83
2022-09-18T07:00:46.528Z,80.88
2022-09-18T07:03:13.257Z,81.44
2022-09-18T07:05:42.558Z,80.45
2022-09-18T07:08:09.706Z,78.14
2022-09-18T07:10:36.364Z,79.34
2022-09-18T07:13:03.448Z,75.99
2022-09-18T07:15:30.252Z,75.37
2022-09-18T07:18:01.928Z,76.83
2022-09-18T07:20:29.607Z,76.09
2022-09-18T07:23:00.789Z,74.00
2022-09-18T07:25:29.339Z,72.19
2022-09-18T07:27:56.066Z,68.74
2022-09-18T07:30:22.509Z,68.63
2022-09-18T07:32:49.035Z,71.34
2022-09-18T07:35:15.487Z,71.12
2022-09-18T07:37:41.872Z,70.53
2022-09-18T07:40:09.672Z,70.00
2022-09-18T07:42:36.204Z,68.26
2022-09-18T07:45:02.723Z,65.31
2022-09-18T07:47:29.796Z,64.57
2022-09-18T07:49:56.153Z,63.54
2022-09-18T07:52:22.610Z,63.34
2022-09-18T07:54:49.106Z,61.68
2022-09-18T07:57:15.486Z,59.39
2022-09-18T07:59:41.824Z,60.05
2022-09-18T08:02:09.123Z,62.01
2022-09-18T08:04:35.569Z,62.85
2022-09-18T08:07:04.231Z,63.76
2022-09-18T08:09:30.972Z,60.28
2022-09-18T08:11:57.361Z,58.87
2022-09-18T08:14:28.553Z,55.75
2022-09-18T08:16:56.013Z,55.88
2022-09-18T08:19:22.464Z,53.97
2022-09-18T08:21:48.906Z,52.11
2022-09-18T08:24:17.231Z,54.13
2022-09-18T08:26:43.948Z,51.02
2022-09-18T08:29:10.325Z,52.19
2022-09-18T08:31:36.880Z,51.21
2022-09-18T08:34:03.413Z,53.35
2022-09-18T08:36:29.786Z,52.27
2022-09-18T08:38:56.146Z,51.69
2022-09-18T08:41:58.138Z,50.35
2022-09-18T08:44:29.141Z,55.96
2022-09-18T08:47:05.748Z,54.67
2022-09-18T08:49:40.954Z,56.09
2022-09-18T08:52:14.690Z,55.62
2022-09-18T08:55:04.877Z,56.49
2022-09-18T08:57:37.272Z,55.41
2022-09-18T09:00:22.108Z,57.86
2022-09-18T09:02:51.154Z,61.13
2022-09-18T09:05:44.982Z,61.65
2022-09-18T09:08:48.202Z,64.00
2022-09-18T09:11:59.314Z,63.74
2022-09-18T09:14:56.227Z,63.15
2022-09-18T09:17:48.038Z,61.21
2022-09-18T09:20:20.176Z,59.35
2022-09-18T09:23:05.373Z,54.35
2022-09-18T09:25:53.036Z,54.65
2022-09-18T09:29:04.486Z,57.90
2022-09-18T09:31:39.850Z,56.30
2022-09-18T09:34:27.011Z,52.58
2022-09-18T09:36:57.411Z,53.80
2022-09-18T09:39:30.234Z,54.97
2022-09-18T09:42:21.702Z,51.81
2022-09-18T09:44:54.185Z,48.34
2022-09-18T09:47:32.026Z,42.42
2022-09-18T09:50:34.376Z,41.30
2022-09-18T09:53:07.069Z,45.78
2022-09-18T09:55:42.380Z,45.39
2022-09-18T09:58:37.105Z,45.39
2022-09-18T10:01:13.505Z,44.89
2022-09-18T10:04:06.648Z,43.41
2022-09-18T10:07:11.454Z,42.39
2022-09-18T10:09:49.738Z,41.93
2022-09-18T10:12:26.552Z,46.73
2022-09-18T10:14:59.639Z,53.19
2022-09-18T10:17:31.279Z,51.71
2022-09-18T10:19:57.699Z,46.83
2022-09-18T10:22:26.698Z,44.47
2022-09-18T10:25:05.446Z,46.99
2022-09-18T10:27:31.899Z,46.37
2022-09-18T10:29:59.384Z,46.25
2022-09-18T10:32:37.877Z,48.15
2022-09-18T10:35:26.297Z,51.67
2022-09-18T10:37:52.672Z,51.61
2022-09-18T10:40:32.443Z,52.97
2022-09-18T10:42:59.891Z,52.67
2022-09-18T10:45:29.109Z,55.18
2022-09-18T10:48:26.195Z,50.75
2022-09-18T10:50:58.456Z,46.58
2022-09-18T10:53:29.999Z,44.79
2022-09-18T10:56:05.162Z,43.59
2022-09-18T10:58:33.610Z,41.71
2022-09-18T11:01:05.940Z,40.13
2022-09-18T11:03:44.273Z,39.19
2022-09-18T11:06:20.331Z,43.55
2022-09-18T11:08:50.385Z,43.87
2022-09-18T11:11:30.896Z,41.59
2022-09-18T11:14:02.800Z,44.59
2022-09-18T11:16:37.866Z,41.82
2022-09-18T11:19:13.804Z,41.52
2022-09-18T11:21:45.653Z,38.04
2022-09-18T11:24:27.104Z,36.76
2022-09-18T11:26:58.541Z,41.66
2022-09-18T11:29:30.990Z,41.95
2022-09-18T11:32:25.400Z,42.78
2022-09-18T11:35:04.223Z,40.14
2022-09-18T11:37:35.575Z,39.60
2022-09-18T11:40:09.367Z,38.48
2022-09-18T11:42:43.486Z,37.91
2022-09-18T11:45:33.511Z,38.67
2022-09-18T11:48:26.159Z,36.59
2022-09-18T11:50:56.829Z,39.70
2022-09-18T11:53:27.802Z,40.79
2022-09-18T11:56:07.484Z,43.66
2022-09-18T11:58:36.574Z,40.69
2022-09-18T12:01:14.541Z,44.87
2022-09-18T12:03:49.441Z,46.89
2022-09-18T12:06:35.422Z,48.01
2022-09-18T12:09:11.028Z,49.64
2022-09-18T12:12:02.571Z,48.87
2022-09-18T12:14:35.012Z,50.77
2022-09-18T12:17:22.628Z,49.01
2022-09-18T12:19:55.207Z,46.04
2022-09-18T12:22:30.213Z,43.88
2022-09-18T12:24:57.738Z,42.96
2022-09-18T12:28:15.357Z,41.77
2022-09-18T12:31:21.483Z,41.67
2022-09-18T12:34:03.526Z,39.50
2022-09-18T12:37:11.039Z,40.00
2022-09-18T12:39:44.026Z,39.11
2022-09-18T12:42:25.089Z,40.14
2022-09-18T12:44:57.135Z,37.71
2022-09-18T12:47:44.856Z,37.37
2022-09-18T12:50:48.531Z,39.31
2022-09-18T12:53:28.277Z,38.64
2022-09-18T12:56:12.536Z,36.35
2022-09-18T12:58:54.153Z,37.04
2022-09-18T13:01:43.301Z,38.58
2022-09-18T13:04:33.140Z,43.91
2022-09-18T13:07:07.177Z,44.34
2022-09-18T13:10:06.078Z,43.20
2022-09-18T13:12:54.024Z,43.04
2022-09-18T13:15:26.386Z,42.32
2022-09-18T13:18:04.132Z,42.73
2022-09-18T13:20:41.126Z,45.91
2022-09-18T13:23:16.999Z,47.80
2022-09-18T13:25:47.285Z,49.23
2022-09-18T13:28:16.985Z,49.78
2022-09-18T13:30:43.897Z,49.88
2022-09-18T13:33:23.477Z,48.24
2022-09-18T13:35:55.674Z,45.63
2022-09-18T13:38:27.696Z,45.93
2022-09-18T13:41:03.857Z,43.02
2022-09-18T13:43:32.797Z,42.76
2022-09-18T13:46:06.070Z,44.22
2022-09-18T13:48:39.473Z,45.77
2022-09-18T13:51:09.279Z,48.35
2022-09-18T13:53:43.279Z,50.30
2022-09-18T13:56:12.503Z,52.30
2022-09-18T13:58:50.460Z,50.60
2022-09-18T14:01:38.688Z,50.92
2022-09-18T14:04:39.963Z,51.53
2022-09-18T14:07:18.497Z,52.40
2022-09-18T14:09:52.827Z,51.17
2022-09-18T14:12:20.632Z,52.59
2022-09-18T14:15:03.977Z,50.77
2022-09-18T14:17:35.014Z,52.45
2022-09-18T14:20:21.924Z,53.53
2022-09-18T14:22:48.397Z,54.32
2022-09-18T14:25:15.146Z,56.13
2022-09-18T14:27:57.672Z,56.53
2022-09-18T14:30:27.122Z,57.19
2022-09-18T14:33:04.543Z,58.06
2022-09-18T14:35:44.282Z,59.34
2022-09-18T14:38:23.156Z,58.15
2022-09-18T14:40:55.784Z,59.55
2022-09-18T14:43:23.442Z,59.37
2022-09-18T14:45:50.794Z,60.62
2022-09-18T14:48:26.638Z,58.32
2022-09-18T14:51:18.719Z,57.91
2022-09-18T14:53:50.049Z,55.83
2022-09-18T14:56:23.896Z,55.77
2022-09-18T14:58:50.771Z,55.06
2022-09-18T15:01:22.894Z,53.06
2022-09-18T15:03:51.354Z,53.02
2022-09-18T15:06:40.072Z,54.63
2022-09-18T15:09:10.136Z,53.31
2022-09-18T15:11:52.561Z,53.98
2022-09-18T15:14:27.625Z,56.47
2022-09-18T15:16:56.041Z,54.10
2022-09-18T15:19:22.663Z,53.17
2022-09-18T15:21:49.560Z,53.80
2022-09-18T15:24:17.397Z,53.86
2022-09-18T15:26:51.391Z,54.76
2022-09-18T15:29:51.573Z,56.52
2022-09-18T15:32:37.674Z,54.77
2022-09-18T15:35:06.368Z,55.68
2022-09-18T15:37:34.594Z,55.28
2022-09-18T15:40:04.690Z,58.26
2022-09-18T15:42:35.216Z,59.74
2022-09-18T15:45:01.512Z,62.20
2022-09-18T15:47:45.902Z,60.30
2022-09-18T15:50:12.190Z,62.50
2022-09-18T15:52:42.377Z,60.72
2022-09-18T15:55:18.081Z,62.62
2022-09-18T15:57:53.069Z,63.27
2022-09-18T16:00:21.383Z,63.43
2022-09-18T16:02:57.853Z,64.74
2022-09-18T16:05:26.248Z,65.28
2022-09-18T16:07:58.695Z,66.16
2022-09-18T16:10:34.545Z,66.96
2022-09-18T16:13:12.930Z,66.49
2022-09-18T16:15:40.368Z,67.29
2022-09-18T16:18:18.888Z,68.99
2022-09-18T16:20:49.435Z,68.87
2022-09-18T16:23:40.791Z,71.44
2022-09-18T16:26:19.396Z,71.96
2022-09-18T16:28:49.148Z,72.47
2022-09-18T16:31:19.443Z,72.41
2022-09-18T16:33:57.340Z,73.77
2022-09-18T16:36:27.576Z,75.31
2022-09-18T16:38:55.665Z,71.43
2022-09-18T16:41:22.526Z,73.04
2022-09-18T16:43:49.721Z,75.25
2022-09-18T16:46:17.021Z,77.23
2022-09-18T16:48:44.111Z,79.25
2022-09-18T16:51:10.568Z,81.92
2022-09-18T16:53:38.211Z,79.21
2022-09-18T16:56:09.372Z,81.62
2022-09-18T16:58:37.509Z,82.62
2022-09-18T17:01:05.064Z,81.48
2022-09-18T17:03:32.500Z,81.24
2022-09-18T17:06:01.716Z,81.83
2022-09-18T17:08:29.273Z,82.71
2022-09-18T17:10:56.032Z,82.83
2022-09-18T17:13:22.744Z,85.33
2022-09-18T17:15:49.245Z,84.53
2022-09-18T17:18:15.684Z,83.59
2022-09-18T17:20:42.340Z,86.21
2022-09-18T17:23:08.710Z,87.16
2022-09-18T17:25:35.121Z,87.16
2022-09-18T17:28:01.742Z,87.85
2022-09-18T17:30:28.106Z,87.71
2022-09-18T17:32:54.509Z,87.50
2022-09-18T17:35:21.398Z,86.91
2022-09-18T17:37:47.835Z,86.42
2022-09-18T17:40:14.339Z,86.11
2022-09-18T17:42:41.459Z,86.92
2022-09-18T17:45:08.349Z,87.43
2022-09-18T17:47:34.721Z,87.87
2022-09-18T17:50:01.648Z,89.44
2022-09-18T17:52:28.029Z,88.39
2022-09-18T17:54:54.495Z,88.86
2022-09-18T17:57:20.957Z,90.13
2022-09-18T17:59:48.052Z,88.25
2022-09-18T18:02:14.573Z,87.20
2022-09-18T18:04:40.993Z,88.79
2022-09-18T18:07:07.603Z,89.39
2022-09-18T18:09:37.522Z,90.15
2022-09-18T18:12:05.388Z,90.24
2022-09-18T18:14:32.857Z,89.20
2022-09-18T18:17:01.012Z,89.50
2022-09-18T18:19:27.783Z,89.46
2022-09-18T18:21:54.517Z,89.42
2022-09-18T18:24:21.419Z,90.63
2022-09-18T18:26:48.379Z,91.37
2022-09-18T18:29:17.828Z,90.67
2022-09-18T18:31:45.774Z,91.07
2022-09-18T18:34:13.537Z,91.61
2022-09-18T18:36:41.687Z,91.77
2022-09-18T18:39:11.968Z,91.58
2022-09-18T18:41:39.403Z,90.01
2022-09-18T18:44:05.963Z,91.25
2022-09-18T18:46:38.335Z,89.74
2022-09-18T18:49:10.100Z,91.96
2022-09-18T18:51:43.323Z,92.24
2022-09-18T18:54:10.228Z,90.78
2022-09-18T18:56:38.631Z,91.58
2022-09-18T18:59:07.904Z,90.97
2022-09-18T19:01:34.385Z,92.16
2022-09-18T19:04:07.116Z,91.45
2022-09-18T19:06:36.302Z,92.37
2022-09-18T19:09:09.056Z,91.41
2022-09-18T19:11:45.209Z,90.71
2022-09-18T19:14:14.236Z,91.28
2022-09-18T19:16:40.685Z,91.18
2022-09-18T19:19:09.419Z,91.51
2022-09-18T19:21:37.744Z,91.52
2022-09-18T19:24:05.869Z,91.51
2022-09-18T19:26:32.724Z,91.47
2022-09-18T19:29:01.303Z,92.15
2022-09-18T19:31:29.237Z,92.00
2022-09-18T19:33:57.839Z,91.79
2022-09-18T19:36:26.896Z,91.23
2022-09-18T19:38:56.500Z,92.32
2022-09-18T19:41:32.962Z,92.75
2022-09-18T19:44:03.648Z,92.40
2022-09-18T19:46:32.038Z,92.32
2022-09-18T19:48:59.837Z,92.65
2022-09-18T19:51:34.581Z,92.95
2022-09-18T19:54:00.986Z,93.81
2022-09-18T19:56:42.551Z,93.39
2022-09-18T19:59:10.335Z,92.77
2022-09-18T20:01:36.814Z,93.11
2022-09-18T20:04:03.365Z,93.13
2022-09-18T20:06:32.164Z,92.96
2022-09-18T20:08:59.207Z,92.63
2022-09-18T20:11:25.736Z,92.56
2022-09-18T20:13:53.548Z,93.23
2022-09-18T20:16:21.140Z,93.30
2022-09-18T20:18:48.075Z,94.40
2022-09-18T20:21:17.342Z,93.68
2022-09-18T20:23:44.426Z,93.31
2022-09-18T20:26:13.789Z,94.40
2022-09-18T20:28:40.541Z,93.04
2022-09-18T20:31:12.730Z,93.22
2022-09-18T20:33:39.330Z,93.58
2022-09-18T20:36:08.012Z,93.47
2022-09-18T20:38:36.899Z,93.87
2022-09-18T20:41:09.516Z,94.05
2022-09-18T20:43:38.680Z,94.57
2022-09-18T20:46:07.177Z,94.17
2022-09-18T20:48:41.298Z,93.96
2022-09-18T20:51:10.699Z,94.29
2022-09-18T20:53:41.718Z,94.76
2022-09-18T20:56:10.052Z,94.57
2022-09-18T20:58:41.055Z,94.57
2022-09-18T21:01:13.533Z,94.82
2022-09-18T21:03:42.196Z,94.70
2022-09-18T21:06:22.344Z,94.79
2022-09-18T21:08:53.029Z,94.82
2022-09-18T21:11:23.109Z,94.75
2022-09-18T21:13:53.823Z,95.29
2022-09-18T21:16:22.002Z,94.99
2022-09-18T21:18:49.574Z,95.15
2022-09-18T21:21:17.073Z,95.26
2022-09-18T21:24:02.552Z,95.10
2022-09-18T21:26:43.911Z,95.03
2022-09-18T21:29:14.075Z,95.36
2022-09-18T21:31:45.536Z,95.53
2022-09-18T21:34:23.325Z,95.47
2022-09-18T21:37:12.003Z,95.72
2022-09-18T21:39:39.170Z,95.90
2022-09-18T21:42:07.246Z,96.08
2022-09-18T21:44:35.318Z,96.29
2022-09-18T21:47:06.552Z,96.35
2022-09-18T21:49:33.493Z,96.17
2022-09-18T21:52:03.782Z,96.02
2022-09-18T21:54:31.874Z,96.02
2022-09-18T21:56:58.595Z,96.04
2022-09-18T21:59:27.192Z,96.28
2022-09-18T22:01:56.912Z,95.75
2022-09-18T22:04:28.610Z,95.99
2022-09-18T22:06:57.555Z,95.80
2022-09-18T22:09:28.234Z,96.40
2022-09-18T22:11:55.419Z,95.95
2022-09-18T22:14:29.413Z,96.16
2022-09-18T22:16:56.358Z,95.88
2022-09-18T22:19:22.806Z,96.21
2022-09-18T22:21:51.103Z,96.67
2022-09-18T22:24:20.202Z,96.67
2022-09-18T22:26:50.779Z,96.51
2022-09-18T22:29:19.607Z,96.36
2022-09-18T22:31:46.859Z,96.34
2022-09-18T22:34:18.254Z,96.58
2022-09-18T22:36:45.801Z,96.37
2022-09-18T22:39:13.877Z,96.47
2022-09-18T22:41:40.626Z,96.50
2022-09-18T22:44:07.286Z,96.24
2022-09-18T22:46:36.898Z,96.24
2022-09-18T22:49:04.293Z,96.33
2022-09-18T22:51:30.665Z,96.51
2022-09-18T22:54:07.590Z,96.67
2022-09-18T22:56:38.786Z,96.32
2022-09-18T22:59:05.319Z,96.37
2022-09-18T23:01:35.221Z,96.37
2022-09-18T23:04:03.578Z,96.29
2022-09-18T23:06:31.958Z,96.52
2022-09-18T23:09:18.725Z,96.35
2022-09-18T23:11:48.222Z,96.11
2022-09-18T23:14:22.928Z,96.46
2022-09-18T23:16:50.283Z,96.12
2022-09-18T23:19:22.644Z,96.69
2022-09-18T23:21:49.431Z,96.82
2022-09-18T23:24:16.110Z,96.83
2022-09-18T23:26:44.904Z,96.19
2022-09-18T23:29:14.351Z,96.31
2022-09-18T23:31:43.224Z,96.40
2022-09-18T23:34:19.103Z,96.41
2022-09-18T23:36:48.370Z,96.69
2022-09-18T23:39:24.381Z,96.57
2022-09-18T23:41:51.258Z,96.50
2022-09-18T23:44:20.139Z,96.39
2022-09-18T23:46:47.243Z,96.60
2022-09-18T23:49:15.574Z,96.60
2022-09-18T23:51:46.266Z,96.65
2022-09-18T23:54:19.190Z,96.92
2022-09-18T23:56:45.954Z,97.15
2022-09-18T23:59:13.730Z,97.06
